sensor_id;sensor_type;location;lat;lon;timestamp;P1;durP1;ratioP1;P2;durP2;ratioP2
4508;SDS011;2267;48.816;9.230;2024-02-14T00:00:46;10.33;;;9.33;;
4508;SDS011;2267;48.816;9.230;2024-02-14T00:03:13;12.37;;;11.17;;
4508;SDS011;2267;48.816;9.230;2024-02-14T00:05:40;10.40;;;9.50;;
4508;SDS011;2267;48.816;9.230;2024-02-14T00:08:07;9.70;;;8.80;;
4508;SDS011;2267;48.816;9.230;2024-02-14T00:10:34;10.43;;;9.53;;
4508;SDS011;2267;48.816;9.230;2024-02-14T00:13:01;9.53;;;8.83;;
4508;SDS011;2267;48.816;9.230;2024-02-14T00:15:29;10.13;;;9.17;;
4508;SDS011;2267;48.816;9.230;2024-02-14T00:17:55;11.70;;;10.47;;
4508;SDS011;2267;48.816;9.230;2024-02-14T00:20:23;10.17;;;9.23;;
4508;SDS011;2267;48.816;9.230;2024-02-14T00:22:51;9.30;;;8.30;;
4508;SDS011;2267;48.816;9.230;2024-02-14T00:25:18;9.50;;;8.60;;
4508;SDS011;2267;48.816;9.230;2024-02-14T00:27:46;9.00;;;8.20;;
4508;SDS011;2267;48.816;9.230;2024-02-14T00:30:13;11.17;;;10.17;;
4508;SDS011;2267;48.816;9.230;2024-02-14T00:32:40;10.20;;;9.17;;
4508;SDS011;2267;48.816;9.230;2024-02-14T00:35:07;10.70;;;9.40;;
4508;SDS011;2267;48.816;9.230;2024-02-14T00:37:34;12.00;;;10.27;;
4508;SDS011;2267;48.816;9.230;2024-02-14T00:40:01;10.93;;;9.93;;
4508;SDS011;2267;48.816;9.230;2024-02-14T00:42:29;11.97;;;10.87;;
4508;SDS011;2267;48.816;9.230;2024-02-14T00:44:55;11.47;;;10.10;;
4508;SDS011;2267;48.816;9.230;2024-02-14T00:47:22;12.03;;;11.03;;
4508;SDS011;2267;48.816;9.230;2024-02-14T00:49:49;13.27;;;11.27;;
4508;SDS011;2267;48.816;9.230;2024-02-14T00:52:16;12.40;;;11.20;;
4508;SDS011;2267;48.816;9.230;2024-02-14T00:54:43;12.90;;;11.63;;
4508;SDS011;2267;48.816;9.230;2024-02-14T00:57:10;12.07;;;10.20;;
4508;SDS011;2267;48.816;9.230;2024-02-14T00:59:38;10.03;;;9.00;;
4508;SDS011;2267;48.816;9.230;2024-02-14T01:02:05;12.23;;;11.10;;
4508;SDS011;2267;48.816;9.230;2024-02-14T01:04:33;10.87;;;9.60;;
4508;SDS011;2267;48.816;9.230;2024-02-14T01:07:03;10.50;;;9.50;;
4508;SDS011;2267;48.816;9.230;2024-02-14T01:09:30;11.10;;;10.00;;
4508;SDS011;2267;48.816;9.230;2024-02-14T01:11:58;10.80;;;9.90;;
4508;SDS011;2267;48.816;9.230;2024-02-14T01:14:25;11.13;;;10.13;;
4508;SDS011;2267;48.816;9.230;2024-02-14T01:16:52;11.30;;;10.03;;
4508;SDS011;2267;48.816;9.230;2024-02-14T01:19:20;9.33;;;8.43;;
4508;SDS011;2267;48.816;9.230;2024-02-14T01:21:47;10.93;;;9.37;;
4508;SDS011;2267;48.816;9.230;2024-02-14T01:24:15;11.27;;;10.17;;
4508;SDS011;2267;48.816;9.230;2024-02-14T01:26:42;11.03;;;10.03;;
4508;SDS011;2267;48.816;9.230;2024-02-14T01:29:09;9.50;;;8.60;;
4508;SDS011;2267;48.816;9.230;2024-02-14T01:31:36;10.60;;;9.57;;
4508;SDS011;2267;48.816;9.230;2024-02-14T01:34:03;10.73;;;9.73;;
4508;SDS011;2267;48.816;9.230;2024-02-14T01:36:30;9.57;;;8.63;;
4508;SDS011;2267;48.816;9.230;2024-02-14T01:38:57;9.57;;;8.70;;
4508;SDS011;2267;48.816;9.230;2024-02-14T01:41:24;9.63;;;8.73;;
4508;SDS011;2267;48.816;9.230;2024-02-14T01:43:51;8.67;;;7.77;;
4508;SDS011;2267;48.816;9.230;2024-02-14T01:46:18;8.37;;;7.67;;
4508;SDS011;2267;48.816;9.230;2024-02-14T01:48:45;9.00;;;8.10;;
4508;SDS011;2267;48.816;9.230;2024-02-14T01:51:13;9.80;;;7.50;;
4508;SDS011;2267;48.816;9.230;2024-02-14T01:53:43;7.73;;;7.03;;
4508;SDS011;2267;48.816;9.230;2024-02-14T01:56:11;7.83;;;7.13;;
4508;SDS011;2267;48.816;9.230;2024-02-14T01:58:38;7.67;;;6.70;;
4508;SDS011;2267;48.816;9.230;2024-02-14T02:01:06;7.40;;;6.73;;
4508;SDS011;2267;48.816;9.230;2024-02-14T02:03:33;7.63;;;6.93;;
4508;SDS011;2267;48.816;9.230;2024-02-14T02:06:03;7.27;;;6.57;;
4508;SDS011;2267;48.816;9.230;2024-02-14T02:08:34;7.80;;;7.00;;
4508;SDS011;2267;48.816;9.230;2024-02-14T02:11:02;8.17;;;7.37;;
4508;SDS011;2267;48.816;9.230;2024-02-14T02:13:29;8.90;;;7.53;;
4508;SDS011;2267;48.816;9.230;2024-02-14T02:15:56;9.00;;;7.00;;
4508;SDS011;2267;48.816;9.230;2024-02-14T02:18:23;7.57;;;6.87;;
4508;SDS011;2267;48.816;9.230;2024-02-14T02:20:52;6.87;;;6.27;;
4508;SDS011;2267;48.816;9.230;2024-02-14T02:23:19;7.03;;;6.40;;
4508;SDS011;2267;48.816;9.230;2024-02-14T02:25:46;7.33;;;6.33;;
4508;SDS011;2267;48.816;9.230;2024-02-14T02:28:14;6.70;;;6.00;;
4508;SDS011;2267;48.816;9.230;2024-02-14T02:30:40;6.60;;;5.90;;
4508;SDS011;2267;48.816;9.230;2024-02-14T02:33:07;7.30;;;6.60;;
4508;SDS011;2267;48.816;9.230;2024-02-14T02:35:34;6.70;;;6.10;;
4508;SDS011;2267;48.816;9.230;2024-02-14T02:38:01;6.60;;;6.00;;
4508;SDS011;2267;48.816;9.230;2024-02-14T02:40:28;6.50;;;5.80;;
4508;SDS011;2267;48.816;9.230;2024-02-14T02:42:55;6.80;;;6.17;;
4508;SDS011;2267;48.816;9.230;2024-02-14T02:45:22;7.50;;;6.83;;
4508;SDS011;2267;48.816;9.230;2024-02-14T02:47:49;6.90;;;5.70;;
4508;SDS011;2267;48.816;9.230;2024-02-14T02:50:18;6.77;;;6.17;;
4508;SDS011;2267;48.816;9.230;2024-02-14T02:52:46;6.37;;;5.77;;
4508;SDS011;2267;48.816;9.230;2024-02-14T02:55:13;6.87;;;6.27;;
4508;SDS011;2267;48.816;9.230;2024-02-14T02:57:43;6.73;;;5.83;;
4508;SDS011;2267;48.816;9.230;2024-02-14T03:00:12;7.07;;;6.33;;
4508;SDS011;2267;48.816;9.230;2024-02-14T03:02:39;6.70;;;6.10;;
4508;SDS011;2267;48.816;9.230;2024-02-14T03:05:12;6.37;;;5.87;;
4508;SDS011;2267;48.816;9.230;2024-02-14T03:07:44;6.00;;;5.40;;
4508;SDS011;2267;48.816;9.230;2024-02-14T03:10:11;5.63;;;5.13;;
4508;SDS011;2267;48.816;9.230;2024-02-14T03:12:40;6.10;;;5.50;;
4508;SDS011;2267;48.816;9.230;2024-02-14T03:15:07;6.13;;;5.17;;
4508;SDS011;2267;48.816;9.230;2024-02-14T03:17:36;6.63;;;5.77;;
4508;SDS011;2267;48.816;9.230;2024-02-14T03:20:04;6.90;;;5.90;;
4508;SDS011;2267;48.816;9.230;2024-02-14T03:22:43;7.80;;;6.20;;
4508;SDS011;2267;48.816;9.230;2024-02-14T03:25:12;6.77;;;6.07;;
4508;SDS011;2267;48.816;9.230;2024-02-14T03:27:40;8.10;;;7.20;;
4508;SDS011;2267;48.816;9.230;2024-02-14T03:30:07;7.87;;;7.00;;
4508;SDS011;2267;48.816;9.230;2024-02-14T03:32:34;8.90;;;8.00;;
4508;SDS011;2267;48.816;9.230;2024-02-14T03:35:01;7.53;;;6.93;;
4508;SDS011;2267;48.816;9.230;2024-02-14T03:37:28;9.30;;;7.70;;
4508;SDS011;2267;48.816;9.230;2024-02-14T03:39:55;9.43;;;8.43;;
4508;SDS011;2267;48.816;9.230;2024-02-14T03:42:22;9.13;;;8.33;;
4508;SDS011;2267;48.816;9.230;2024-02-14T03:44:49;9.00;;;8.07;;
4508;SDS011;2267;48.816;9.230;2024-02-14T03:47:15;10.03;;;8.67;;
4508;SDS011;2267;48.816;9.230;2024-02-14T03:49:42;9.47;;;8.60;;
4508;SDS011;2267;48.816;9.230;2024-02-14T03:52:09;10.00;;;9.10;;
4508;SDS011;2267;48.816;9.230;2024-02-14T03:54:36;9.37;;;8.43;;
4508;SDS011;2267;48.816;9.230;2024-02-14T03:57:03;11.97;;;10.60;;
4508;SDS011;2267;48.816;9.230;2024-02-14T03:59:35;10.03;;;9.13;;
4508;SDS011;2267;48.816;9.230;2024-02-14T04:02:03;9.30;;;8.40;;
4508;SDS011;2267;48.816;9.230;2024-02-14T04:04:30;12.80;;;10.10;;
4508;SDS011;2267;48.816;9.230;2024-02-14T04:06:57;11.03;;;9.10;;
4508;SDS011;2267;48.816;9.230;2024-02-14T04:09:27;9.60;;;8.70;;
4508;SDS011;2267;48.816;9.230;2024-02-14T04:11:54;9.40;;;8.50;;
4508;SDS011;2267;48.816;9.230;2024-02-14T04:14:21;15.90;;;8.80;;
4508;SDS011;2267;48.816;9.230;2024-02-14T04:16:48;13.40;;;9.20;;
4508;SDS011;2267;48.816;9.230;2024-02-14T04:19:15;10.07;;;7.07;;
4508;SDS011;2267;48.816;9.230;2024-02-14T04:21:44;8.03;;;7.13;;
4508;SDS011;2267;48.816;9.230;2024-02-14T04:24:12;7.17;;;6.47;;
4508;SDS011;2267;48.816;9.230;2024-02-14T04:26:39;5.90;;;5.40;;
4508;SDS011;2267;48.816;9.230;2024-02-14T04:29:07;7.90;;;7.07;;
4508;SDS011;2267;48.816;9.230;2024-02-14T04:31:35;9.37;;;7.67;;
4508;SDS011;2267;48.816;9.230;2024-02-14T04:34:01;8.20;;;7.50;;
4508;SDS011;2267;48.816;9.230;2024-02-14T04:36:28;7.27;;;6.57;;
4508;SDS011;2267;48.816;9.230;2024-02-14T04:38:57;7.40;;;6.80;;
4508;SDS011;2267;48.816;9.230;2024-02-14T04:41:23;7.83;;;7.13;;
4508;SDS011;2267;48.816;9.230;2024-02-14T04:43:50;8.27;;;7.50;;
4508;SDS011;2267;48.816;9.230;2024-02-14T04:46:17;7.33;;;6.70;;
4508;SDS011;2267;48.816;9.230;2024-02-14T04:48:44;9.00;;;8.10;;
4508;SDS011;2267;48.816;9.230;2024-02-14T04:51:11;8.60;;;6.80;;
4508;SDS011;2267;48.816;9.230;2024-02-14T04:53:39;8.97;;;8.10;;
4508;SDS011;2267;48.816;9.230;2024-02-14T04:56:06;7.13;;;6.43;;
4508;SDS011;2267;48.816;9.230;2024-02-14T04:58:34;8.23;;;7.50;;
4508;SDS011;2267;48.816;9.230;2024-02-14T05:01:02;6.67;;;6.00;;
4508;SDS011;2267;48.816;9.230;2024-02-14T05:03:29;9.17;;;8.37;;
4508;SDS011;2267;48.816;9.230;2024-02-14T05:05:57;8.77;;;7.40;;
4508;SDS011;2267;48.816;9.230;2024-02-14T05:08:25;7.07;;;6.40;;
4508;SDS011;2267;48.816;9.230;2024-02-14T05:10:52;8.03;;;7.23;;
4508;SDS011;2267;48.816;9.230;2024-02-14T05:13:19;7.67;;;7.07;;
4508;SDS011;2267;48.816;9.230;2024-02-14T05:15:45;6.60;;;6.10;;
4508;SDS011;2267;48.816;9.230;2024-02-14T05:18:12;9.23;;;6.90;;
4508;SDS011;2267;48.816;9.230;2024-02-14T05:20:39;7.23;;;6.63;;
4508;SDS011;2267;48.816;9.230;2024-02-14T05:23:06;7.33;;;6.63;;
4508;SDS011;2267;48.816;9.230;2024-02-14T05:25:33;9.60;;;6.97;;
4508;SDS011;2267;48.816;9.230;2024-02-14T05:28:00;7.80;;;7.10;;
4508;SDS011;2267;48.816;9.230;2024-02-14T05:30:27;7.83;;;7.13;;
4508;SDS011;2267;48.816;9.230;2024-02-14T05:32:54;7.90;;;6.50;;
4508;SDS011;2267;48.816;9.230;2024-02-14T05:35:21;11.43;;;7.37;;
4508;SDS011;2267;48.816;9.230;2024-02-14T05:37:49;7.90;;;7.10;;
4508;SDS011;2267;48.816;9.230;2024-02-14T05:40:15;6.93;;;6.33;;
4508;SDS011;2267;48.816;9.230;2024-02-14T05:42:42;7.50;;;6.83;;
4508;SDS011;2267;48.816;9.230;2024-02-14T05:45:12;7.40;;;6.60;;
4508;SDS011;2267;48.816;9.230;2024-02-14T05:47:39;7.80;;;7.00;;
4508;SDS011;2267;48.816;9.230;2024-02-14T05:50:07;7.13;;;6.43;;
4508;SDS011;2267;48.816;9.230;2024-02-14T05:52:35;8.20;;;7.50;;
4508;SDS011;2267;48.816;9.230;2024-02-14T05:55:02;7.23;;;6.60;;
4508;SDS011;2267;48.816;9.230;2024-02-14T05:57:29;9.67;;;7.50;;
4508;SDS011;2267;48.816;9.230;2024-02-14T05:59:56;7.40;;;6.67;;
4508;SDS011;2267;48.816;9.230;2024-02-14T06:02:23;9.23;;;6.70;;
4508;SDS011;2267;48.816;9.230;2024-02-14T06:04:50;8.27;;;6.83;;
4508;SDS011;2267;48.816;9.230;2024-02-14T06:07:17;7.73;;;7.03;;
4508;SDS011;2267;48.816;9.230;2024-02-14T06:09:44;9.60;;;7.83;;
4508;SDS011;2267;48.816;9.230;2024-02-14T06:12:11;8.07;;;7.30;;
4508;SDS011;2267;48.816;9.230;2024-02-14T06:14:38;10.20;;;7.93;;
4508;SDS011;2267;48.816;9.230;2024-02-14T06:17:05;8.80;;;7.90;;
4508;SDS011;2267;48.816;9.230;2024-02-14T06:19:32;10.07;;;8.93;;
4508;SDS011;2267;48.816;9.230;2024-02-14T06:22:05;9.87;;;9.00;;
4508;SDS011;2267;48.816;9.230;2024-02-14T06:24:32;10.93;;;9.43;;
4508;SDS011;2267;48.816;9.230;2024-02-14T06:26:59;10.97;;;8.33;;
4508;SDS011;2267;48.816;9.230;2024-02-14T06:29:26;10.23;;;9.23;;
4508;SDS011;2267;48.816;9.230;2024-02-14T06:31:53;10.20;;;8.00;;
4508;SDS011;2267;48.816;9.230;2024-02-14T06:34:20;8.83;;;8.03;;
4508;SDS011;2267;48.816;9.230;2024-02-14T06:36:47;9.43;;;8.43;;
4508;SDS011;2267;48.816;9.230;2024-02-14T06:39:14;7.67;;;6.87;;
4508;SDS011;2267;48.816;9.230;2024-02-14T06:41:41;8.90;;;7.30;;
4508;SDS011;2267;48.816;9.230;2024-02-14T06:44:08;9.70;;;7.30;;
4508;SDS011;2267;48.816;9.230;2024-02-14T06:46:35;9.23;;;7.53;;
4508;SDS011;2267;48.816;9.230;2024-02-14T06:49:04;7.60;;;6.90;;
4508;SDS011;2267;48.816;9.230;2024-02-14T06:51:31;7.70;;;6.97;;
4508;SDS011;2267;48.816;9.230;2024-02-14T06:53:58;7.63;;;6.73;;
4508;SDS011;2267;48.816;9.230;2024-02-14T06:56:25;7.33;;;6.63;;
4508;SDS011;2267;48.816;9.230;2024-02-14T06:58:51;6.80;;;6.10;;
4508;SDS011;2267;48.816;9.230;2024-02-14T07:01:26;6.30;;;5.80;;
4508;SDS011;2267;48.816;9.230;2024-02-14T07:03:55;6.97;;;6.10;;
4508;SDS011;2267;48.816;9.230;2024-02-14T07:06:22;6.33;;;5.47;;
4508;SDS011;2267;48.816;9.230;2024-02-14T07:08:49;5.77;;;5.27;;
4508;SDS011;2267;48.816;9.230;2024-02-14T07:11:16;5.60;;;5.20;;
4508;SDS011;2267;48.816;9.230;2024-02-14T07:13:43;5.40;;;4.90;;
4508;SDS011;2267;48.816;9.230;2024-02-14T07:16:10;7.20;;;4.97;;
4508;SDS011;2267;48.816;9.230;2024-02-14T07:18:37;6.27;;;5.63;;
4508;SDS011;2267;48.816;9.230;2024-02-14T07:21:04;7.40;;;5.67;;
4508;SDS011;2267;48.816;9.230;2024-02-14T07:23:32;6.57;;;5.00;;
4508;SDS011;2267;48.816;9.230;2024-02-14T07:26:00;6.60;;;5.40;;
4508;SDS011;2267;48.816;9.230;2024-02-14T07:28:27;6.13;;;4.60;;
4508;SDS011;2267;48.816;9.230;2024-02-14T07:30:54;6.70;;;6.10;;
4508;SDS011;2267;48.816;9.230;2024-02-14T07:33:21;5.53;;;5.00;;
4508;SDS011;2267;48.816;9.230;2024-02-14T07:35:50;7.10;;;4.80;;
4508;SDS011;2267;48.816;9.230;2024-02-14T07:38:17;5.80;;;5.30;;
4508;SDS011;2267;48.816;9.230;2024-02-14T07:40:44;8.50;;;5.50;;
4508;SDS011;2267;48.816;9.230;2024-02-14T07:43:11;7.00;;;5.37;;
4508;SDS011;2267;48.816;9.230;2024-02-14T07:45:37;6.70;;;5.27;;
4508;SDS011;2267;48.816;9.230;2024-02-14T07:48:04;6.60;;;6.00;;
4508;SDS011;2267;48.816;9.230;2024-02-14T07:50:32;7.73;;;5.50;;
4508;SDS011;2267;48.816;9.230;2024-02-14T07:52:59;5.47;;;4.97;;
4508;SDS011;2267;48.816;9.230;2024-02-14T07:55:26;6.67;;;5.80;;
4508;SDS011;2267;48.816;9.230;2024-02-14T07:57:52;5.97;;;5.40;;
4508;SDS011;2267;48.816;9.230;2024-02-14T08:00:20;8.33;;;5.97;;
4508;SDS011;2267;48.816;9.230;2024-02-14T08:02:50;5.13;;;4.63;;
4508;SDS011;2267;48.816;9.230;2024-02-14T08:05:17;7.70;;;5.40;;
4508;SDS011;2267;48.816;9.230;2024-02-14T08:07:44;5.73;;;5.23;;
4508;SDS011;2267;48.816;9.230;2024-02-14T08:10:12;5.40;;;4.80;;
4508;SDS011;2267;48.816;9.230;2024-02-14T08:12:40;7.00;;;5.60;;
4508;SDS011;2267;48.816;9.230;2024-02-14T08:15:06;8.43;;;6.47;;
4508;SDS011;2267;48.816;9.230;2024-02-14T08:17:34;7.20;;;5.70;;
4508;SDS011;2267;48.816;9.230;2024-02-14T08:20:02;8.87;;;6.73;;
4508;SDS011;2267;48.816;9.230;2024-02-14T08:22:30;10.23;;;6.30;;
4508;SDS011;2267;48.816;9.230;2024-02-14T08:24:58;9.53;;;6.30;;
4508;SDS011;2267;48.816;9.230;2024-02-14T08:27:25;8.13;;;5.60;;
4508;SDS011;2267;48.816;9.230;2024-02-14T08:29:53;9.07;;;7.27;;
4508;SDS011;2267;48.816;9.230;2024-02-14T08:32:20;7.53;;;6.17;;
4508;SDS011;2267;48.816;9.230;2024-02-14T08:34:50;8.10;;;7.30;;
4508;SDS011;2267;48.816;9.230;2024-02-14T08:37:17;8.00;;;7.03;;
4508;SDS011;2267;48.816;9.230;2024-02-14T08:39:44;8.00;;;6.83;;
4508;SDS011;2267;48.816;9.230;2024-02-14T08:42:11;10.37;;;7.10;;
4508;SDS011;2267;48.816;9.230;2024-02-14T08:44:38;10.20;;;6.93;;
4508;SDS011;2267;48.816;9.230;2024-02-14T08:47:06;8.93;;;7.40;;
4508;SDS011;2267;48.816;9.230;2024-02-14T08:49:33;9.43;;;7.63;;
4508;SDS011;2267;48.816;9.230;2024-02-14T08:52:00;8.13;;;7.33;;
4508;SDS011;2267;48.816;9.230;2024-02-14T08:54:27;8.77;;;7.50;;
4508;SDS011;2267;48.816;9.230;2024-02-14T08:56:54;10.13;;;7.23;;
4508;SDS011;2267;48.816;9.230;2024-02-14T08:59:25;14.03;;;7.30;;
4508;SDS011;2267;48.816;9.230;2024-02-14T09:01:52;7.60;;;6.80;;
4508;SDS011;2267;48.816;9.230;2024-02-14T09:04:19;7.80;;;7.10;;
4508;SDS011;2267;48.816;9.230;2024-02-14T09:06:46;8.67;;;6.50;;
4508;SDS011;2267;48.816;9.230;2024-02-14T09:09:13;7.83;;;7.13;;
4508;SDS011;2267;48.816;9.230;2024-02-14T09:11:40;7.07;;;5.80;;
4508;SDS011;2267;48.816;9.230;2024-02-14T09:14:07;7.53;;;6.37;;
4508;SDS011;2267;48.816;9.230;2024-02-14T09:16:36;6.37;;;5.70;;
4508;SDS011;2267;48.816;9.230;2024-02-14T09:19:03;8.57;;;6.70;;
4508;SDS011;2267;48.816;9.230;2024-02-14T09:21:33;6.63;;;5.40;;
4508;SDS011;2267;48.816;9.230;2024-02-14T09:24:03;10.13;;;6.30;;
4508;SDS011;2267;48.816;9.230;2024-02-14T09:26:31;6.43;;;5.03;;
4508;SDS011;2267;48.816;9.230;2024-02-14T09:28:58;7.10;;;5.40;;
4508;SDS011;2267;48.816;9.230;2024-02-14T09:31:25;5.30;;;4.80;;
4508;SDS011;2267;48.816;9.230;2024-02-14T09:33:51;8.50;;;5.20;;
4508;SDS011;2267;48.816;9.230;2024-02-14T09:36:23;6.40;;;5.50;;
4508;SDS011;2267;48.816;9.230;2024-02-14T09:38:51;7.77;;;5.70;;
4508;SDS011;2267;48.816;9.230;2024-02-14T09:41:22;7.73;;;5.77;;
4508;SDS011;2267;48.816;9.230;2024-02-14T09:43:55;11.47;;;6.17;;
4508;SDS011;2267;48.816;9.230;2024-02-14T09:46:25;7.90;;;5.57;;
4508;SDS011;2267;48.816;9.230;2024-02-14T09:48:52;6.53;;;5.70;;
4508;SDS011;2267;48.816;9.230;2024-02-14T09:51:21;6.60;;;5.80;;
4508;SDS011;2267;48.816;9.230;2024-02-14T09:53:49;7.77;;;6.40;;
4508;SDS011;2267;48.816;9.230;2024-02-14T09:56:17;6.80;;;5.40;;
4508;SDS011;2267;48.816;9.230;2024-02-14T09:58:45;7.07;;;5.70;;
4508;SDS011;2267;48.816;9.230;2024-02-14T10:01:16;9.03;;;5.70;;
4508;SDS011;2267;48.816;9.230;2024-02-14T10:03:43;6.83;;;5.27;;
4508;SDS011;2267;48.816;9.230;2024-02-14T10:06:11;8.10;;;5.30;;
4508;SDS011;2267;48.816;9.230;2024-02-14T10:08:39;7.40;;;5.37;;
4508;SDS011;2267;48.816;9.230;2024-02-14T10:11:20;10.40;;;5.53;;
4508;SDS011;2267;48.816;9.230;2024-02-14T10:13:49;7.20;;;6.10;;
4508;SDS011;2267;48.816;9.230;2024-02-14T10:16:17;6.27;;;5.07;;
4508;SDS011;2267;48.816;9.230;2024-02-14T10:18:50;7.63;;;5.60;;
4508;SDS011;2267;48.816;9.230;2024-02-14T10:21:18;7.23;;;5.00;;
4508;SDS011;2267;48.816;9.230;2024-02-14T10:23:45;5.10;;;4.60;;
4508;SDS011;2267;48.816;9.230;2024-02-14T10:26:17;6.03;;;4.63;;
4508;SDS011;2267;48.816;9.230;2024-02-14T10:28:44;6.57;;;4.27;;
4508;SDS011;2267;48.816;9.230;2024-02-14T10:31:15;5.43;;;3.00;;
4508;SDS011;2267;48.816;9.230;2024-02-14T10:33:42;3.87;;;3.00;;
4508;SDS011;2267;48.816;9.230;2024-02-14T10:36:10;5.50;;;2.43;;
4508;SDS011;2267;48.816;9.230;2024-02-14T10:38:39;4.93;;;2.67;;
4508;SDS011;2267;48.816;9.230;2024-02-14T10:41:06;2.80;;;2.43;;
4508;SDS011;2267;48.816;9.230;2024-02-14T10:43:36;2.60;;;2.00;;
4508;SDS011;2267;48.816;9.230;2024-02-14T10:46:08;3.70;;;2.47;;
4508;SDS011;2267;48.816;9.230;2024-02-14T10:48:53;2.13;;;1.80;;
4508;SDS011;2267;48.816;9.230;2024-02-14T10:51:25;3.70;;;2.40;;
4508;SDS011;2267;48.816;9.230;2024-02-14T10:53:57;3.07;;;1.90;;
4508;SDS011;2267;48.816;9.230;2024-02-14T10:56:27;3.00;;;2.20;;
4508;SDS011;2267;48.816;9.230;2024-02-14T10:58:59;2.93;;;1.97;;
4508;SDS011;2267;48.816;9.230;2024-02-14T11:01:27;2.30;;;1.73;;
4508;SDS011;2267;48.816;9.230;2024-02-14T11:03:58;3.00;;;1.80;;
4508;SDS011;2267;48.816;9.230;2024-02-14T11:06:26;3.47;;;1.53;;
4508;SDS011;2267;48.816;9.230;2024-02-14T11:09:02;3.17;;;1.90;;
4508;SDS011;2267;48.816;9.230;2024-02-14T11:11:34;3.20;;;1.87;;
4508;SDS011;2267;48.816;9.230;2024-02-14T11:14:01;1.90;;;1.60;;
4508;SDS011;2267;48.816;9.230;2024-02-14T11:16:30;2.10;;;1.50;;
4508;SDS011;2267;48.816;9.230;2024-02-14T11:19:05;3.97;;;1.90;;
4508;SDS011;2267;48.816;9.230;2024-02-14T11:21:46;2.30;;;1.50;;
4508;SDS011;2267;48.816;9.230;2024-02-14T11:24:15;3.03;;;1.90;;
4508;SDS011;2267;48.816;9.230;2024-02-14T11:26:49;2.27;;;1.63;;
4508;SDS011;2267;48.816;9.230;2024-02-14T11:29:19;3.00;;;1.83;;
4508;SDS011;2267;48.816;9.230;2024-02-14T11:31:57;2.87;;;1.50;;
4508;SDS011;2267;48.816;9.230;2024-02-14T11:34:28;3.73;;;1.80;;
4508;SDS011;2267;48.816;9.230;2024-02-14T11:37:03;2.00;;;1.40;;
4508;SDS011;2267;48.816;9.230;2024-02-14T11:39:35;3.10;;;1.87;;
4508;SDS011;2267;48.816;9.230;2024-02-14T11:42:01;2.87;;;1.50;;
4508;SDS011;2267;48.816;9.230;2024-02-14T11:44:30;2.53;;;1.50;;
4508;SDS011;2267;48.816;9.230;2024-02-14T11:46:58;2.20;;;1.57;;
4508;SDS011;2267;48.816;9.230;2024-02-14T11:49:25;2.23;;;1.43;;
4508;SDS011;2267;48.816;9.230;2024-02-14T11:51:52;2.10;;;1.50;;
4508;SDS011;2267;48.816;9.230;2024-02-14T11:54:20;2.17;;;1.50;;
4508;SDS011;2267;48.816;9.230;2024-02-14T11:56:47;2.73;;;1.57;;
4508;SDS011;2267;48.816;9.230;2024-02-14T11:59:14;2.53;;;1.50;;
4508;SDS011;2267;48.816;9.230;2024-02-14T12:01:43;3.40;;;2.17;;
4508;SDS011;2267;48.816;9.230;2024-02-14T12:04:12;2.07;;;1.50;;
4508;SDS011;2267;48.816;9.230;2024-02-14T12:06:40;2.10;;;1.47;;
4508;SDS011;2267;48.816;9.230;2024-02-14T12:09:10;2.40;;;1.43;;
4508;SDS011;2267;48.816;9.230;2024-02-14T12:11:39;3.10;;;2.30;;
4508;SDS011;2267;48.816;9.230;2024-02-14T12:14:10;2.67;;;1.70;;
4508;SDS011;2267;48.816;9.230;2024-02-14T12:16:38;3.20;;;1.57;;
4508;SDS011;2267;48.816;9.230;2024-02-14T12:19:07;3.30;;;1.80;;
4508;SDS011;2267;48.816;9.230;2024-02-14T12:21:37;2.83;;;1.27;;
4508;SDS011;2267;48.816;9.230;2024-02-14T12:24:09;2.47;;;1.30;;
4508;SDS011;2267;48.816;9.230;2024-02-14T12:26:37;2.43;;;1.30;;
4508;SDS011;2267;48.816;9.230;2024-02-14T12:29:05;2.07;;;1.70;;
4508;SDS011;2267;48.816;9.230;2024-02-14T12:31:33;2.53;;;1.40;;
4508;SDS011;2267;48.816;9.230;2024-02-14T12:34:01;3.30;;;1.67;;
4508;SDS011;2267;48.816;9.230;2024-02-14T12:36:31;2.33;;;1.40;;
4508;SDS011;2267;48.816;9.230;2024-02-14T12:38:59;1.80;;;1.30;;
4508;SDS011;2267;48.816;9.230;2024-02-14T12:41:30;2.90;;;1.63;;
4508;SDS011;2267;48.816;9.230;2024-02-14T12:43:58;1.70;;;1.20;;
4508;SDS011;2267;48.816;9.230;2024-02-14T12:46:28;1.80;;;1.20;;
4508;SDS011;2267;48.816;9.230;2024-02-14T12:48:56;1.87;;;1.10;;
4508;SDS011;2267;48.816;9.230;2024-02-14T12:51:23;2.53;;;1.50;;
4508;SDS011;2267;48.816;9.230;2024-02-14T12:53:55;2.90;;;1.50;;
4508;SDS011;2267;48.816;9.230;2024-02-14T12:56:22;4.13;;;1.27;;
4508;SDS011;2267;48.816;9.230;2024-02-14T12:58:50;1.60;;;1.20;;
4508;SDS011;2267;48.816;9.230;2024-02-14T13:01:16;2.07;;;1.40;;
4508;SDS011;2267;48.816;9.230;2024-02-14T13:03:44;2.00;;;1.40;;
4508;SDS011;2267;48.816;9.230;2024-02-14T13:06:11;1.80;;;1.20;;
4508;SDS011;2267;48.816;9.230;2024-02-14T13:08:40;2.13;;;1.30;;
4508;SDS011;2267;48.816;9.230;2024-02-14T13:11:08;1.80;;;1.10;;
4508;SDS011;2267;48.816;9.230;2024-02-14T13:13:35;2.43;;;1.20;;
4508;SDS011;2267;48.816;9.230;2024-02-14T13:16:03;1.80;;;1.30;;
4508;SDS011;2267;48.816;9.230;2024-02-14T13:18:33;2.50;;;1.30;;
4508;SDS011;2267;48.816;9.230;2024-02-14T13:21:01;1.60;;;1.00;;
4508;SDS011;2267;48.816;9.230;2024-02-14T13:23:29;4.70;;;1.23;;
4508;SDS011;2267;48.816;9.230;2024-02-14T13:25:56;1.70;;;1.20;;
4508;SDS011;2267;48.816;9.230;2024-02-14T13:28:23;2.17;;;1.40;;
4508;SDS011;2267;48.816;9.230;2024-02-14T13:30:50;1.90;;;1.20;;
4508;SDS011;2267;48.816;9.230;2024-02-14T13:33:21;2.20;;;1.13;;
4508;SDS011;2267;48.816;9.230;2024-02-14T13:35:48;1.90;;;1.30;;
4508;SDS011;2267;48.816;9.230;2024-02-14T13:38:15;1.90;;;1.40;;
4508;SDS011;2267;48.816;9.230;2024-02-14T13:40:42;2.53;;;1.20;;
4508;SDS011;2267;48.816;9.230;2024-02-14T13:43:09;1.60;;;1.20;;
4508;SDS011;2267;48.816;9.230;2024-02-14T13:45:42;1.77;;;1.33;;
4508;SDS011;2267;48.816;9.230;2024-02-14T13:48:10;1.70;;;1.13;;
4508;SDS011;2267;48.816;9.230;2024-02-14T13:50:38;1.90;;;1.30;;
4508;SDS011;2267;48.816;9.230;2024-02-14T13:53:08;2.93;;;1.40;;
4508;SDS011;2267;48.816;9.230;2024-02-14T13:55:35;1.67;;;1.13;;
4508;SDS011;2267;48.816;9.230;2024-02-14T13:58:02;2.00;;;1.30;;
4508;SDS011;2267;48.816;9.230;2024-02-14T14:00:29;1.80;;;1.20;;
4508;SDS011;2267;48.816;9.230;2024-02-14T14:02:56;2.50;;;1.43;;
4508;SDS011;2267;48.816;9.230;2024-02-14T14:05:23;1.60;;;1.17;;
4508;SDS011;2267;48.816;9.230;2024-02-14T14:07:50;1.60;;;1.00;;
4508;SDS011;2267;48.816;9.230;2024-02-14T14:10:24;1.80;;;1.10;;
4508;SDS011;2267;48.816;9.230;2024-02-14T14:12:53;1.70;;;1.00;;
4508;SDS011;2267;48.816;9.230;2024-02-14T14:15:20;2.10;;;1.00;;
4508;SDS011;2267;48.816;9.230;2024-02-14T14:17:49;2.30;;;1.10;;
4508;SDS011;2267;48.816;9.230;2024-02-14T14:20:17;2.67;;;1.30;;
4508;SDS011;2267;48.816;9.230;2024-02-14T14:22:45;1.80;;;1.30;;
4508;SDS011;2267;48.816;9.230;2024-02-14T14:25:12;1.60;;;1.10;;
4508;SDS011;2267;48.816;9.230;2024-02-14T14:27:39;1.50;;;1.00;;
4508;SDS011;2267;48.816;9.230;2024-02-14T14:30:06;1.80;;;1.20;;
4508;SDS011;2267;48.816;9.230;2024-02-14T14:32:33;2.03;;;1.10;;
4508;SDS011;2267;48.816;9.230;2024-02-14T14:35:01;1.60;;;0.90;;
4508;SDS011;2267;48.816;9.230;2024-02-14T14:37:28;1.50;;;0.90;;
4508;SDS011;2267;48.816;9.230;2024-02-14T14:39:55;1.90;;;1.07;;
4508;SDS011;2267;48.816;9.230;2024-02-14T14:42:22;2.37;;;1.00;;
4508;SDS011;2267;48.816;9.230;2024-02-14T14:44:49;1.90;;;0.90;;
4508;SDS011;2267;48.816;9.230;2024-02-14T14:47:17;1.70;;;1.00;;
4508;SDS011;2267;48.816;9.230;2024-02-14T14:49:43;1.50;;;0.90;;
4508;SDS011;2267;48.816;9.230;2024-02-14T14:52:11;1.70;;;1.10;;
4508;SDS011;2267;48.816;9.230;2024-02-14T14:54:38;1.60;;;1.03;;
4508;SDS011;2267;48.816;9.230;2024-02-14T14:57:05;1.93;;;1.03;;
4508;SDS011;2267;48.816;9.230;2024-02-14T14:59:38;2.40;;;1.20;;
4508;SDS011;2267;48.816;9.230;2024-02-14T15:02:04;4.47;;;1.17;;
4508;SDS011;2267;48.816;9.230;2024-02-14T15:04:32;2.20;;;1.10;;
4508;SDS011;2267;48.816;9.230;2024-02-14T15:07:01;2.37;;;1.00;;
4508;SDS011;2267;48.816;9.230;2024-02-14T15:09:28;4.07;;;1.10;;
4508;SDS011;2267;48.816;9.230;2024-02-14T15:11:58;1.70;;;1.00;;
4508;SDS011;2267;48.816;9.230;2024-02-14T15:14:25;2.27;;;0.97;;
4508;SDS011;2267;48.816;9.230;2024-02-14T15:16:53;2.10;;;1.07;;